sensor_id;sensor_type;location;lat;lon;timestamp;pressure;altitude;pressure_sealevel;temperature;humidity
63111;BME280;49201;53.426;10.300;2023-06-22T00:01:16;102016.06;;;17.80;100.00
63111;BME280;49201;53.426;10.300;2023-06-22T00:03:41;102012.63;;;17.78;100.00
63111;BME280;49201;53.426;10.300;2023-06-22T00:06:06;102012.56;;;17.73;100.00
63111;BME280;49201;53.426;10.300;2023-06-22T00:08:32;102012.59;;;17.76;100.00
63111;BME280;49201;53.426;10.300;2023-06-22T00:10:57;102008.28;;;17.75;100.00
63111;BME280;49201;53.426;10.300;2023-06-22T00:13:23;102005.63;;;17.72;100.00
63111;BME280;49201;53.426;10.300;2023-06-22T00:15:48;102010.88;;;17.75;100.00
63111;BME280;49201;53.426;10.300;2023-06-22T00:18:14;102003.91;;;17.74;100.00
63111;BME280;49201;53.426;10.300;2023-06-22T00:20:41;102004.78;;;17.75;100.00
63111;BME280;49201;53.426;10.300;2023-06-22T00:23:07;102005.63;;;17.72;100.00
63111;BME280;49201;53.426;10.300;2023-06-22T00:25:40;102006.53;;;17.73;100.00
63111;BME280;49201;53.426;10.300;2023-06-22T00:28:05;102003.03;;;17.68;100.00
63111;BME280;49201;53.426;10.300;2023-06-22T00:30:34;102003.84;;;17.67;100.00
63111;BME280;49201;53.426;10.300;2023-06-22T00:33:00;101993.50;;;17.67;100.00
63111;BME280;49201;53.426;10.300;2023-06-22T00:35:26;101994.31;;;17.63;100.00
63111;BME280;49201;53.426;10.300;2023-06-22T00:37:58;102002.09;;;17.63;100.00
63111;BME280;49201;53.426;10.300;2023-06-22T00:40:30;102008.16;;;17.63;100.00
63111;BME280;49201;53.426;10.300;2023-06-22T00:42:57;102021.88;;;17.55;100.00
63111;BME280;49201;53.426;10.300;2023-06-22T00:45:23;102019.28;;;17.53;100.00
63111;BME280;49201;53.426;10.300;2023-06-22T00:47:54;102120.34;;;17.58;100.00
63111;BME280;49201;53.426;10.300;2023-06-22T00:50:22;102018.41;;;17.53;100.00
63111;BME280;49201;53.426;10.300;2023-06-22T00:52:51;102021.84;;;17.52;100.00
63111;BME280;49201;53.426;10.300;2023-06-22T00:55:16;102024.41;;;17.49;100.00
63111;BME280;49201;53.426;10.300;2023-06-22T00:57:45;102022.75;;;17.54;100.00
63111;BME280;49201;53.426;10.300;2023-06-22T01:00:12;102019.25;;;17.52;100.00
63111;BME280;49201;53.426;10.300;2023-06-22T01:02:43;102010.63;;;17.50;100.00
63111;BME280;49201;53.426;10.300;2023-06-22T01:05:12;102025.28;;;17.51;100.00
63111;BME280;49201;53.426;10.300;2023-06-22T01:10:34;102014.84;;;17.42;100.00
63111;BME280;49201;53.426;10.300;2023-06-22T01:13:11;102020.00;;;17.40;100.00
63111;BME280;49201;53.426;10.300;2023-06-22T01:15:45;102019.06;;;17.37;100.00
63111;BME280;49201;53.426;10.300;2023-06-22T01:18:13;102026.81;;;17.35;100.00
63111;BME280;49201;53.426;10.300;2023-06-22T01:20:40;102022.47;;;17.31;100.00
63111;BME280;49201;53.426;10.300;2023-06-22T01:23:20;102024.13;;;17.26;100.00
63111;BME280;49201;53.426;10.300;2023-06-22T01:26:17;102010.28;;;17.23;100.00
63111;BME280;49201;53.426;10.300;2023-06-22T01:28:48;102021.47;;;17.19;100.00
63111;BME280;49201;53.426;10.300;2023-06-22T01:31:16;102016.22;;;17.16;100.00
63111;BME280;49201;53.426;10.300;2023-06-22T01:33:45;102012.78;;;17.14;100.00
63111;BME280;49201;53.426;10.300;2023-06-22T01:36:13;102011.88;;;17.13;100.00
63111;BME280;49201;53.426;10.300;2023-06-22T01:38:39;102002.38;;;17.11;100.00
63111;BME280;49201;53.426;10.300;2023-06-22T01:41:05;102005.78;;;17.08;100.00
63111;BME280;49201;53.426;10.300;2023-06-22T01:43:31;102008.38;;;17.05;100.00
63111;BME280;49201;53.426;10.300;2023-06-22T01:46:00;102010.03;;;17.02;100.00
63111;BME280;49201;53.426;10.300;2023-06-22T01:48:27;102007.47;;;17.03;100.00
63111;BME280;49201;53.426;10.300;2023-06-22T01:50:53;102002.25;;;16.99;100.00
63111;BME280;49201;53.426;10.300;2023-06-22T01:53:22;102011.66;;;16.95;100.00
63111;BME280;49201;53.426;10.300;2023-06-22T01:55:51;102005.72;;;17.01;100.00
63111;BME280;49201;53.426;10.300;2023-06-22T01:58:16;101996.25;;;17.01;100.00
63111;BME280;49201;53.426;10.300;2023-06-22T02:00:48;101998.78;;;16.98;100.00
63111;BME280;49201;53.426;10.300;2023-06-22T02:03:19;102003.88;;;16.92;100.00
63111;BME280;49201;53.426;10.300;2023-06-22T02:05:52;102002.97;;;16.89;100.00
63111;BME280;49201;53.426;10.300;2023-06-22T02:08:28;102005.56;;;16.87;100.00
63111;BME280;49201;53.426;10.300;2023-06-22T02:10:59;101997.78;;;16.86;100.00
63111;BME280;49201;53.426;10.300;2023-06-22T02:13:26;101997.72;;;16.83;100.00
63111;BME280;49201;53.426;10.300;2023-06-22T02:15:53;101994.19;;;16.76;100.00
63111;BME280;49201;53.426;10.300;2023-06-22T02:18:18;102001.09;;;16.76;100.00
63111;BME280;49201;53.426;10.300;2023-06-22T02:20:46;102001.91;;;16.72;100.00
63111;BME280;49201;53.426;10.300;2023-06-22T02:23:11;101998.47;;;16.73;100.00
63111;BME280;49201;53.426;10.300;2023-06-22T02:25:37;102001.88;;;16.70;100.00
63111;BME280;49201;53.426;10.300;2023-06-22T02:28:03;101996.69;;;16.69;100.00
63111;BME280;49201;53.426;10.300;2023-06-22T02:30:28;101995.81;;;16.67;100.00
63111;BME280;49201;53.426;10.300;2023-06-22T02:32:54;101994.00;;;16.61;100.00
63111;BME280;49201;53.426;10.300;2023-06-22T02:35:25;101995.63;;;16.55;100.00
63111;BME280;49201;53.426;10.300;2023-06-22T02:37:51;101988.75;;;16.55;100.00
63111;BME280;49201;53.426;10.300;2023-06-22T02:40:17;101991.34;;;16.55;100.00
63111;BME280;49201;53.426;10.300;2023-06-22T02:42:43;101992.97;;;16.52;100.00
63111;BME280;49201;53.426;10.300;2023-06-22T02:45:08;101989.53;;;16.50;100.00
63111;BME280;49201;53.426;10.300;2023-06-22T02:47:34;101990.38;;;16.49;100.00
63111;BME280;49201;53.426;10.300;2023-06-22T02:50:00;101996.41;;;16.49;100.00
63111;BME280;49201;53.426;10.300;2023-06-22T02:52:26;101993.81;;;16.48;100.00
63111;BME280;49201;53.426;10.300;2023-06-22T02:54:52;101991.22;;;16.48;100.00
63111;BME280;49201;53.426;10.300;2023-06-22T02:57:17;101993.75;;;16.45;100.00
63111;BME280;49201;53.426;10.300;2023-06-22T02:59:43;102004.94;;;16.42;100.00
63111;BME280;49201;53.426;10.300;2023-06-22T03:02:11;101997.94;;;16.38;100.00
63111;BME280;49201;53.426;10.300;2023-06-22T03:04:37;101998.81;;;16.39;100.00
63111;BME280;49201;53.426;10.300;2023-06-22T03:07:02;102000.50;;;16.37;100.00
63111;BME280;49201;53.426;10.300;2023-06-22T03:09:30;101991.88;;;16.35;100.00
63111;BME280;49201;53.426;10.300;2023-06-22T03:11:56;101993.56;;;16.34;100.00
63111;BME280;49201;53.426;10.300;2023-06-22T03:14:25;101982.25;;;16.26;100.00
63111;BME280;49201;53.426;10.300;2023-06-22T03:16:51;101988.41;;;16.34;100.00
63111;BME280;49201;53.426;10.300;2023-06-22T03:19:18;101993.69;;;16.40;100.00
63111;BME280;49201;53.426;10.300;2023-06-22T03:21:44;101995.34;;;16.38;100.00
63111;BME280;49201;53.426;10.300;2023-06-22T03:24:11;102003.13;;;16.38;100.00
63111;BME280;49201;53.426;10.300;2023-06-22T03:26:37;102007.31;;;16.32;100.00
63111;BME280;49201;53.426;10.300;2023-06-22T03:29:03;102013.44;;;16.37;100.00
63111;BME280;49201;53.426;10.300;2023-06-22T03:31:30;102012.56;;;16.38;100.00
63111;BME280;49201;53.426;10.300;2023-06-22T03:33:55;102014.34;;;16.39;100.00
63111;BME280;49201;53.426;10.300;2023-06-22T03:36:22;102023.06;;;16.44;100.00
63111;BME280;49201;53.426;10.300;2023-06-22T03:38:49;102020.50;;;16.45;100.00
63111;BME280;49201;53.426;10.300;2023-06-22T03:41:15;102030.84;;;16.47;100.00
63111;BME280;49201;53.426;10.300;2023-06-22T03:43:41;102032.66;;;16.52;100.00
63111;BME280;49201;53.426;10.300;2023-06-22T03:46:07;102031.84;;;16.55;100.00
63111;BME280;49201;53.426;10.300;2023-06-22T03:48:33;102028.50;;;16.62;100.00
63111;BME280;49201;53.426;10.300;2023-06-22T03:51:02;102034.56;;;16.64;100.00
63111;BME280;49201;53.426;10.300;2023-06-22T03:53:28;102039.81;;;16.68;100.00
63111;BME280;49201;53.426;10.300;2023-06-22T03:55:55;102039.03;;;16.75;100.00
63111;BME280;49201;53.426;10.300;2023-06-22T03:58:21;102038.19;;;16.78;100.00
63111;BME280;49201;53.426;10.300;2023-06-22T04:00:48;102046.94;;;16.86;100.00
63111;BME280;49201;53.426;10.300;2023-06-22T04:03:14;102045.31;;;16.94;100.00
63111;BME280;49201;53.426;10.300;2023-06-22T04:05:40;102043.63;;;16.97;100.00
63111;BME280;49201;53.426;10.300;2023-06-22T04:08:06;102050.59;;;17.03;100.00
63111;BME280;49201;53.426;10.300;2023-06-22T04:10:31;102055.00;;;17.10;100.00
63111;BME280;49201;53.426;10.300;2023-06-22T04:12:57;102066.28;;;17.15;100.00
63111;BME280;49201;53.426;10.300;2023-06-22T04:15:22;102056.91;;;17.23;100.00
63111;BME280;49201;53.426;10.300;2023-06-22T04:17:48;102056.94;;;17.29;100.00
63111;BME280;49201;53.426;10.300;2023-06-22T04:20:13;102057.88;;;17.34;100.00
63111;BME280;49201;53.426;10.300;2023-06-22T04:22:39;102056.19;;;17.37;100.00
63111;BME280;49201;53.426;10.300;2023-06-22T04:25:05;102044.22;;;17.42;100.00
63111;BME280;49201;53.426;10.300;2023-06-22T04:27:32;102050.28;;;17.49;100.00
63111;BME280;49201;53.426;10.300;2023-06-22T04:30:02;102045.22;;;17.56;100.00
63111;BME280;49201;53.426;10.300;2023-06-22T04:32:28;102051.31;;;17.63;100.00
63111;BME280;49201;53.426;10.300;2023-06-22T04:34:53;102045.38;;;17.71;100.00
63111;BME280;49201;53.426;10.300;2023-06-22T04:37:18;102047.97;;;17.74;100.00
63111;BME280;49201;53.426;10.300;2023-06-22T04:39:44;102046.28;;;17.76;100.00
63111;BME280;49201;53.426;10.300;2023-06-22T04:42:09;102048.00;;;17.76;100.00
63111;BME280;49201;53.426;10.300;2023-06-22T04:44:35;102042.88;;;17.82;100.00
63111;BME280;49201;53.426;10.300;2023-06-22T04:47:01;102053.31;;;17.88;100.00
63111;BME280;49201;53.426;10.300;2023-06-22T04:49:31;102051.63;;;17.97;100.00
63111;BME280;49201;53.426;10.300;2023-06-22T04:52:05;102053.44;;;18.03;100.00
63111;BME280;49201;53.426;10.300;2023-06-22T04:54:31;102051.78;;;18.12;100.00
63111;BME280;49201;53.426;10.300;2023-06-22T04:57:01;102058.75;;;18.16;100.00
63111;BME280;49201;53.426;10.300;2023-06-22T04:59:27;102044.06;;;18.20;100.00
63111;BME280;49201;53.426;10.300;2023-06-22T05:01:58;102052.72;;;18.19;100.00
63111;BME280;49201;53.426;10.300;2023-06-22T05:04:25;102053.63;;;18.27;100.00
63111;BME280;49201;53.426;10.300;2023-06-22T05:06:53;102050.28;;;18.38;100.00
63111;BME280;49201;53.426;10.300;2023-06-22T05:09:18;102054.69;;;18.51;100.00
63111;BME280;49201;53.426;10.300;2023-06-22T05:11:44;102051.31;;;18.64;100.00
63111;BME280;49201;53.426;10.300;2023-06-22T05:14:10;102047.06;;;18.72;100.00
63111;BME280;49201;53.426;10.300;2023-06-22T05:16:36;102048.84;;;18.82;100.00
63111;BME280;49201;53.426;10.300;2023-06-22T05:19:02;102047.16;;;18.90;100.00
63111;BME280;49201;53.426;10.300;2023-06-22T05:21:29;102050.66;;;18.97;100.00
63111;BME280;49201;53.426;10.300;2023-06-22T05:23:55;102057.59;;;18.99;100.00
63111;BME280;49201;53.426;10.300;2023-06-22T05:26:26;102051.53;;;19.02;100.00
63111;BME280;49201;53.426;10.300;2023-06-22T05:28:51;102049.78;;;19.02;100.00
63111;BME280;49201;53.426;10.300;2023-06-22T05:31:17;102048.94;;;19.02;100.00
63111;BME280;49201;53.426;10.300;2023-06-22T05:33:45;102047.22;;;19.05;100.00
63111;BME280;49201;53.426;10.300;2023-06-22T05:36:11;102050.69;;;19.12;100.00
63111;BME280;49201;53.426;10.300;2023-06-22T05:38:38;102042.94;;;19.21;100.00
63111;BME280;49201;53.426;10.300;2023-06-22T05:41:04;102052.56;;;19.34;100.00
63111;BME280;49201;53.426;10.300;2023-06-22T05:43:30;102046.53;;;19.51;100.00
63111;BME280;49201;53.426;10.300;2023-06-22T05:45:55;102047.44;;;19.68;100.00
63111;BME280;49201;53.426;10.300;2023-06-22T05:48:21;102050.03;;;19.88;100.00
63111;BME280;49201;53.426;10.300;2023-06-22T05:50:46;102051.78;;;19.87;100.00
63111;BME280;49201;53.426;10.300;2023-06-22T05:53:12;102051.78;;;19.87;100.00
63111;BME280;49201;53.426;10.300;2023-06-22T05:55:37;102057.84;;;19.89;100.00
63111;BME280;49201;53.426;10.300;2023-06-22T05:58:02;102057.88;;;20.03;100.00
63111;BME280;49201;53.426;10.300;2023-06-22T06:00:31;102050.09;;;20.16;100.00
63111;BME280;49201;53.426;10.300;2023-06-22T06:02:57;102042.25;;;20.30;100.00
63111;BME280;49201;53.426;10.300;2023-06-22T06:05:32;102043.13;;;20.38;100.00
63111;BME280;49201;53.426;10.300;2023-06-22T06:08:00;102037.91;;;20.44;100.00
63111;BME280;49201;53.426;10.300;2023-06-22T06:10:25;102037.88;;;20.53;100.00
63111;BME280;49201;53.426;10.300;2023-06-22T06:12:51;102036.97;;;20.75;100.00
63111;BME280;49201;53.426;10.300;2023-06-22T06:15:16;102039.53;;;20.81;100.00
63111;BME280;49201;53.426;10.300;2023-06-22T06:17:46;102040.47;;;20.68;100.00
63111;BME280;49201;53.426;10.300;2023-06-22T06:20:12;102036.06;;;20.94;100.00
63111;BME280;49201;53.426;10.300;2023-06-22T06:22:37;102033.38;;;21.12;100.00
63111;BME280;49201;53.426;10.300;2023-06-22T06:25:03;102029.97;;;20.99;100.00
63111;BME280;49201;53.426;10.300;2023-06-22T06:27:29;102035.19;;;20.89;100.00
63111;BME280;49201;53.426;10.300;2023-06-22T06:29:55;102027.38;;;20.89;100.00
63111;BME280;49201;53.426;10.300;2023-06-22T06:32:20;102016.00;;;21.15;100.00
63111;BME280;49201;53.426;10.300;2023-06-22T06:34:46;102028.03;;;21.37;100.00
63111;BME280;49201;53.426;10.300;2023-06-22T06:37:11;102032.34;;;21.46;100.00
63111;BME280;49201;53.426;10.300;2023-06-22T06:39:37;102014.84;;;21.61;100.00
63111;BME280;49201;53.426;10.300;2023-06-22T06:42:02;102012.94;;;21.92;100.00
63111;BME280;49201;53.426;10.300;2023-06-22T06:44:28;102013.69;;;22.03;100.00
63111;BME280;49201;53.426;10.300;2023-06-22T06:46:54;102003.09;;;22.18;100.00
63111;BME280;49201;53.426;10.300;2023-06-22T06:49:19;102007.34;;;22.28;100.00
63111;BME280;49201;53.426;10.300;2023-06-22T06:51:45;101996.78;;;22.43;100.00
63111;BME280;49201;53.426;10.300;2023-06-22T06:54:10;101997.56;;;22.54;100.00
63111;BME280;49201;53.426;10.300;2023-06-22T06:56:36;101979.88;;;22.74;100.00
63111;BME280;49201;53.426;10.300;2023-06-22T06:59:01;101997.34;;;22.74;100.00
63111;BME280;49201;53.426;10.300;2023-06-22T07:01:27;101980.47;;;22.96;100.00
63111;BME280;49201;53.426;10.300;2023-06-22T07:03:52;101971.53;;;23.15;100.00
63111;BME280;49201;53.426;10.300;2023-06-22T07:06:18;101945.31;;;23.18;100.00
63111;BME280;49201;53.426;10.300;2023-06-22T07:08:44;101962.50;;;23.37;100.00
63111;BME280;49201;53.426;10.300;2023-06-22T07:11:09;101916.13;;;23.49;100.00
63111;BME280;49201;53.426;10.300;2023-06-22T07:13:35;101907.06;;;23.68;100.00
63111;BME280;49201;53.426;10.300;2023-06-22T07:16:00;101893.75;;;23.82;100.00
63111;BME280;49201;53.426;10.300;2023-06-22T07:18:26;101909.28;;;23.92;100.00
63111;BME280;49201;53.426;10.300;2023-06-22T07:20:52;101910.66;;;24.13;100.00
63111;BME280;49201;53.426;10.300;2023-06-22T07:23:17;101882.00;;;24.05;100.00
63111;BME280;49201;53.426;10.300;2023-06-22T07:25:43;101895.34;;;24.36;100.00
63111;BME280;49201;53.426;10.300;2023-06-22T07:28:08;101875.66;;;24.58;100.00
63111;BME280;49201;53.426;10.300;2023-06-22T07:30:34;101865.13;;;24.61;100.00
63111;BME280;49201;53.426;10.300;2023-06-22T07:33:00;101846.34;;;24.80;100.00
63111;BME280;49201;53.426;10.300;2023-06-22T07:35:32;101868.22;;;24.79;100.00
63111;BME280;49201;53.426;10.300;2023-06-22T07:37:57;101865.09;;;24.64;100.00
63111;BME280;49201;53.426;10.300;2023-06-22T07:40:23;101849.91;;;24.37;100.00
63111;BME280;49201;53.426;10.300;2023-06-22T07:42:48;101825.59;;;24.32;100.00
63111;BME280;49201;53.426;10.300;2023-06-22T07:45:17;101840.19;;;24.43;100.00
63111;BME280;49201;53.426;10.300;2023-06-22T07:47:42;101842.69;;;24.48;100.00
63111;BME280;49201;53.426;10.300;2023-06-22T07:50:08;101825.22;;;24.48;100.00
63111;BME280;49201;53.426;10.300;2023-06-22T07:52:34;101839.41;;;24.79;100.00
63111;BME280;49201;53.426;10.300;2023-06-22T07:54:59;101808.56;;;24.89;100.00
63111;BME280;49201;53.426;10.300;2023-06-22T07:57:25;101803.69;;;25.45;100.00
63111;BME280;49201;53.426;10.300;2023-06-22T08:00:00;101754.38;;;25.56;92.85
63111;BME280;49201;53.426;10.300;2023-06-22T08:02:26;101766.31;;;25.36;91.84
63111;BME280;49201;53.426;10.300;2023-06-22T08:04:52;101779.03;;;25.17;95.35
63111;BME280;49201;53.426;10.300;2023-06-22T08:07:17;101814.78;;;25.21;98.53
63111;BME280;49201;53.426;10.300;2023-06-22T08:09:48;101791.22;;;25.18;94.15
63111;BME280;49201;53.426;10.300;2023-06-22T08:12:14;101771.47;;;25.40;91.34
63111;BME280;49201;53.426;10.300;2023-06-22T08:14:42;101797.25;;;25.57;94.35
63111;BME280;49201;53.426;10.300;2023-06-22T08:17:08;101801.13;;;25.74;94.17
63111;BME280;49201;53.426;10.300;2023-06-22T08:19:34;101776.19;;;25.60;90.33
63111;BME280;49201;53.426;10.300;2023-06-22T08:21:59;101792.88;;;25.22;91.59
63111;BME280;49201;53.426;10.300;2023-06-22T08:24:25;101808.78;;;25.16;94.16
63111;BME280;49201;53.426;10.300;2023-06-22T08:26:51;101808.63;;;25.22;94.22
63111;BME280;49201;53.426;10.300;2023-06-22T08:29:17;101793.09;;;25.15;90.33
63111;BME280;49201;53.426;10.300;2023-06-22T08:31:42;101777.13;;;25.24;87.15
63111;BME280;49201;53.426;10.300;2023-06-22T08:34:08;101744.16;;;25.14;81.81
63111;BME280;49201;53.426;10.300;2023-06-22T08:36:33;101796.31;;;25.24;91.12
63111;BME280;49201;53.426;10.300;2023-06-22T08:39:07;101791.63;;;25.38;90.54
63111;BME280;49201;53.426;10.300;2023-06-22T08:41:33;101775.22;;;25.62;88.31
63111;BME280;49201;53.426;10.300;2023-06-22T08:43:58;101764.22;;;26.11;87.98
63111;BME280;49201;53.426;10.300;2023-06-22T08:46:24;101761.09;;;26.55;85.55
63111;BME280;49201;53.426;10.300;2023-06-22T08:48:56;101722.63;;;26.80;78.53
63111;BME280;49201;53.426;10.300;2023-06-22T08:51:22;101709.81;;;26.95;76.14
63111;BME280;49201;53.426;10.300;2023-06-22T08:53:47;101685.94;;;27.01;72.56
63111;BME280;49201;53.426;10.300;2023-06-22T08:56:13;101702.94;;;27.16;76.13
63111;BME280;49201;53.426;10.300;2023-06-22T08:58:38;101741.38;;;27.46;84.30
63111;BME280;49201;53.426;10.300;2023-06-22T09:01:04;101671.56;;;27.36;69.71
63111;BME280;49201;53.426;10.300;2023-06-22T09:03:29;101686.06;;;27.47;72.44
63111;BME280;49201;53.426;10.300;2023-06-22T09:05:55;101706.25;;;27.70;75.42
63111;BME280;49201;53.426;10.300;2023-06-22T09:08:21;101707.25;;;27.90;74.89
63111;BME280;49201;53.426;10.300;2023-06-22T09:10:46;101686.19;;;27.90;70.05
63111;BME280;49201;53.426;10.300;2023-06-22T09:13:11;101659.00;;;27.90;62.75
63111;BME280;49201;53.426;10.300;2023-06-22T09:15:37;101656.22;;;27.93;62.61
63111;BME280;49201;53.426;10.300;2023-06-22T09:18:03;101631.00;;;28.09;58.54
63111;BME280;49201;53.426;10.300;2023-06-22T09:20:28;101642.50;;;27.85;59.65
63111;BME280;49201;53.426;10.300;2023-06-22T09:22:54;101652.09;;;28.09;60.70
63111;BME280;49201;53.426;10.300;2023-06-22T09:25:19;101639.94;;;28.26;59.44
63111;BME280;49201;53.426;10.300;2023-06-22T09:27:46;101654.94;;;28.47;60.15
63111;BME280;49201;53.426;10.300;2023-06-22T09:30:12;101660.75;;;28.75;60.77
63111;BME280;49201;53.426;10.300;2023-06-22T09:32:37;101635.81;;;28.62;56.60
63111;BME280;49201;53.426;10.300;2023-06-22T09:35:04;101627.38;;;28.54;54.53
63111;BME280;49201;53.426;10.300;2023-06-22T09:37:31;101631.88;;;28.52;55.58
63111;BME280;49201;53.426;10.300;2023-06-22T09:39:56;101635.75;;;28.84;56.66
63111;BME280;49201;53.426;10.300;2023-06-22T09:42:22;101653.47;;;29.02;58.22
63111;BME280;49201;53.426;10.300;2023-06-22T09:44:47;101666.25;;;29.11;59.33
63111;BME280;49201;53.426;10.300;2023-06-22T09:47:13;101640.94;;;29.25;56.97
63111;BME280;49201;53.426;10.300;2023-06-22T09:49:38;101642.06;;;29.40;57.72
63111;BME280;49201;53.426;10.300;2023-06-22T09:52:04;101636.66;;;29.43;56.80
63111;BME280;49201;53.426;10.300;2023-06-22T09:54:29;101646.50;;;29.76;57.74
63111;BME280;49201;53.426;10.300;2023-06-22T09:56:55;101628.31;;;29.70;55.79
63111;BME280;49201;53.426;10.300;2023-06-22T09:59:20;101620.03;;;29.96;55.23
63111;BME280;49201;53.426;10.300;2023-06-22T10:01:46;101629.13;;;29.72;56.03
63111;BME280;49201;53.426;10.300;2023-06-22T10:04:11;101646.78;;;30.07;56.80
63111;BME280;49201;53.426;10.300;2023-06-22T10:06:37;101595.69;;;29.71;52.90
63111;BME280;49201;53.426;10.300;2023-06-22T10:09:06;101646.25;;;29.82;55.73
63111;BME280;49201;53.426;10.300;2023-06-22T10:11:32;101644.38;;;30.03;57.00
63111;BME280;49201;53.426;10.300;2023-06-22T10:14:00;101608.50;;;29.97;52.74
63111;BME280;49201;53.426;10.300;2023-06-22T10:16:32;101618.75;;;29.49;52.62
63111;BME280;49201;53.426;10.300;2023-06-22T10:18:58;101662.66;;;29.70;57.71
63111;BME280;49201;53.426;10.300;2023-06-22T10:21:24;101597.81;;;29.82;52.14
63111;BME280;49201;53.426;10.300;2023-06-22T10:23:49;101647.44;;;30.13;55.93
63111;BME280;49201;53.426;10.300;2023-06-22T10:26:15;101623.75;;;30.28;54.76
63111;BME280;49201;53.426;10.300;2023-06-22T10:28:40;101629.44;;;30.55;54.76
63111;BME280;49201;53.426;10.300;2023-06-22T10:31:06;101615.56;;;30.68;52.92
63111;BME280;49201;53.426;10.300;2023-06-22T10:33:31;101598.63;;;30.72;51.20
63111;BME280;49201;53.426;10.300;2023-06-22T10:35:56;101621.97;;;30.97;53.01
63111;BME280;49201;53.426;10.300;2023-06-22T10:38:22;101613.16;;;30.81;51.78
63111;BME280;49201;53.426;10.300;2023-06-22T10:40:47;101611.91;;;30.88;52.06
63111;BME280;49201;53.426;10.300;2023-06-22T10:43:13;101605.88;;;31.01;50.88
63111;BME280;49201;53.426;10.300;2023-06-22T10:45:38;101594.63;;;30.81;50.12
63111;BME280;49201;53.426;10.300;2023-06-22T10:48:04;101584.13;;;30.62;49.02
63111;BME280;49201;53.426;10.300;2023-06-22T10:50:29;101579.34;;;31.03;49.16
63111;BME280;49201;53.426;10.300;2023-06-22T10:52:55;101581.31;;;31.47;48.58
63111;BME280;49201;53.426;10.300;2023-06-22T10:55:20;101620.53;;;31.41;51.13
63111;BME280;49201;53.426;10.300;2023-06-22T10:57:46;101612.03;;;31.82;49.14
63111;BME280;49201;53.426;10.300;2023-06-22T11:00:13;101587.38;;;32.11;48.86
63111;BME280;49201;53.426;10.300;2023-06-22T11:02:39;101576.56;;;32.14;46.91
63111;BME280;49201;53.426;10.300;2023-06-22T11:05:05;101582.03;;;31.82;46.93
63111;BME280;49201;53.426;10.300;2023-06-22T11:07:31;101604.28;;;31.47;47.74
63111;BME280;49201;53.426;10.300;2023-06-22T11:09:56;101613.31;;;31.75;48.17
63111;BME280;49201;53.426;10.300;2023-06-22T11:12:22;101596.84;;;31.38;47.62
63111;BME280;49201;53.426;10.300;2023-06-22T11:14:47;101587.78;;;31.42;46.80
63111;BME280;49201;53.426;10.300;2023-06-22T11:17:15;101600.44;;;31.04;48.13
63111;BME280;49201;53.426;10.300;2023-06-22T11:19:40;101603.34;;;31.32;48.73
63111;BME280;49201;53.426;10.300;2023-06-22T11:22:06;101607.44;;;31.38;48.76
63111;BME280;49201;53.426;10.300;2023-06-22T11:24:31;101622.59;;;31.67;49.13
63111;BME280;49201;53.426;10.300;2023-06-22T11:26:57;101595.81;;;31.56;49.06
63111;BME280;49201;53.426;10.300;2023-06-22T11:29:23;101590.53;;;31.56;48.67
63111;BME280;49201;53.426;10.300;2023-06-22T11:31:48;101586.84;;;31.43;47.79
63111;BME280;49201;53.426;10.300;2023-06-22T11:34:14;101617.81;;;31.73;49.78
63111;BME280;49201;53.426;10.300;2023-06-22T11:36:40;101576.78;;;31.80;47.66
63111;BME280;49201;53.426;10.300;2023-06-22T11:39:05;101593.66;;;31.79;48.50
63111;BME280;49201;53.426;10.300;2023-06-22T11:41:31;101602.66;;;32.22;49.33
63111;BME280;49201;53.426;10.300;2023-06-22T11:43:56;101568.75;;;31.97;46.52
63111;BME280;49201;53.426;10.300;2023-06-22T11:46:22;101585.06;;;31.59;47.82
63111;BME280;49201;53.426;10.300;2023-06-22T11:48:47;101593.44;;;32.13;47.46
63111;BME280;49201;53.426;10.300;2023-06-22T11:51:12;101594.75;;;32.06;48.10
63111;BME280;49201;53.426;10.300;2023-06-22T11:53:38;101582.69;;;32.01;47.01
63111;BME280;49201;53.426;10.300;2023-06-22T11:56:03;101589.59;;;31.72;47.85
63111;BME280;49201;53.426;10.300;2023-06-22T11:58:29;101594.75;;;31.75;47.74
63111;BME280;49201;53.426;10.300;2023-06-22T12:00:54;101607.78;;;31.32;49.26
63111;BME280;49201;53.426;10.300;2023-06-22T12:03:20;101631.63;;;31.47;50.85
63111;BME280;49201;53.426;10.300;2023-06-22T12:05:50;101595.88;;;31.87;48.10
63111;BME280;49201;53.426;10.300;2023-06-22T12:08:16;101584.13;;;31.60;48.26
63111;BME280;49201;53.426;10.300;2023-06-22T12:10:42;101590.53;;;31.71;49.47
63111;BME280;49201;53.426;10.300;2023-06-22T12:13:07;101587.56;;;31.77;48.04
63111;BME280;49201;53.426;10.300;2023-06-22T12:15:32;101571.16;;;31.71;48.30
63111;BME280;49201;53.426;10.300;2023-06-22T12:17:58;101581.94;;;31.99;49.25
63111;BME280;49201;53.426;10.300;2023-06-22T12:20:23;101596.28;;;31.95;49.25
63111;BME280;49201;53.426;10.300;2023-06-22T12:22:49;101549.69;;;31.91;47.73
63111;BME280;49201;53.426;10.300;2023-06-22T12:25:16;101576.84;;;32.10;49.37
63111;BME280;49201;53.426;10.300;2023-06-22T12:27:42;101561.91;;;31.93;48.42
63111;BME280;49201;53.426;10.300;2023-06-22T12:30:08;101538.50;;;32.15;46.45
63111;BME280;49201;53.426;10.300;2023-06-22T12:32:34;101537.22;;;31.77;46.61